createdAt,value
2022-11-28T00:01:34.977Z,101549.06
2022-11-28T00:04:03.884Z,101547.06
2022-11-28T00:06:33.368Z,101547.91
2022-11-28T00:09:02.029Z,101546.94
2022-11-28T00:11:30.220Z,101528.22
2022-11-28T00:13:58.105Z,101528.97
2022-11-28T00:16:26.253Z,101531.41
2022-11-28T00:18:55.843Z,101529.66
2022-11-28T00:21:26.116Z,101525.91
2022-11-28T00:23:55.526Z,101521.16
2022-11-28T00:26:25.620Z,101519.44
2022-11-28T00:28:54.011Z,101531.78
2022-11-28T00:31:23.986Z,101516.06
2022-11-28T00:33:52.764Z,101523.13
2022-11-28T00:36:21.608Z,101519.59
2022-11-28T00:38:50.203Z,101518.34
2022-11-28T00:41:21.507Z,101515.75
2022-11-28T00:43:50.593Z,101515.91
2022-11-28T00:46:20.157Z,101509.81
2022-11-28T00:48:48.733Z,101500.28
2022-11-28T00:51:19.440Z,101502.78
2022-11-28T00:53:49.521Z,101498.31
2022-11-28T00:56:21.446Z,101500.16
2022-11-28T00:58:49.981Z,101495.78
2022-11-28T01:01:19.486Z,101485.38
2022-11-28T01:03:48.218Z,101473.94
2022-11-28T01:06:22.621Z,101463.00
2022-11-28T01:08:50.463Z,101470.41
2022-11-28T01:11:20.473Z,101461.44
2022-11-28T01:13:48.634Z,101467.69
2022-11-28T01:16:16.850Z,101454.50
2022-11-28T01:18:44.802Z,101461.44
2022-11-28T01:21:12.948Z,101457.50
2022-11-28T01:23:40.857Z,101451.44
2022-11-28T01:26:10.611Z,101458.50
2022-11-28T01:28:40.116Z,101463.06
2022-11-28T01:31:10.041Z,101461.22
2022-11-28T01:33:38.317Z,101445.66
2022-11-28T01:36:07.337Z,101447.63
2022-11-28T01:38:35.680Z,101424.91
2022-11-28T01:41:07.108Z,101429.78
2022-11-28T01:43:35.675Z,101426.28
2022-11-28T01:46:06.564Z,101414.75
2022-11-28T01:48:41.543Z,101409.28
2022-11-28T01:51:11.091Z,101399.59
2022-11-28T01:53:43.500Z,101402.00
2022-11-28T01:56:16.847Z,101398.78
2022-11-28T01:58:50.350Z,101386.09
2022-11-28T02:01:20.757Z,101369.44
2022-11-28T02:03:51.005Z,101375.16
2022-11-28T02:06:21.540Z,101376.13
2022-11-28T02:08:52.501Z,101369.50
2022-11-28T02:11:58.316Z,101361.50
2022-11-28T02:14:44.785Z,101357.09
2022-11-28T02:17:25.360Z,101346.81
2022-11-28T02:20:24.395Z,101333.59
2022-11-28T02:23:01.077Z,101322.22
2022-11-28T02:25:54.589Z,101330.13
2022-11-28T02:28:45.904Z,101317.00
2022-11-28T02:31:33.617Z,101291.59
2022-11-28T02:34:08.405Z,101287.38
2022-11-28T02:36:42.037Z,101288.34
2022-11-28T02:39:15.661Z,101285.66
2022-11-28T02:41:48.594Z,101281.84
2022-11-28T02:44:19.081Z,101288.53
2022-11-28T02:46:54.033Z,101283.25
2022-11-28T02:49:29.599Z,101289.50
2022-11-28T02:52:01.738Z,101275.34
2022-11-28T02:54:31.744Z,101269.84
2022-11-28T02:56:59.626Z,101283.50
2022-11-28T02:59:34.398Z,101281.66
2022-11-28T03:02:03.204Z,101279.66
2022-11-28T03:04:45.851Z,101274.44
2022-11-28T03:07:25.420Z,101265.75
2022-11-28T03:10:04.686Z,101275.97
2022-11-28T03:12:42.876Z,101272.22
2022-11-28T03:15:13.536Z,101276.44
2022-11-28T03:17:49.795Z,101274.16
2022-11-28T03:20:24.673Z,101280.16
2022-11-28T03:23:03.028Z,101272.44
2022-11-28T03:25:37.024Z,101269.84
2022-11-28T03:28:10.042Z,101263.00
2022-11-28T03:30:43.982Z,101254.84
2022-11-28T03:33:13.963Z,101263.28
2022-11-28T03:35:50.340Z,101260.81
2022-11-28T03:38:22.797Z,101263.38
2022-11-28T03:40:55.455Z,101254.69
2022-11-28T03:43:29.066Z,101272.16
2022-11-28T03:46:00.514Z,101274.34
2022-11-28T03:48:32.298Z,101276.66
2022-11-28T03:51:07.533Z,101276.63
2022-11-28T03:53:43.633Z,101286.56
2022-11-28T03:56:16.975Z,101279.16
2022-11-28T03:58:50.817Z,101275.97
2022-11-28T04:01:29.495Z,101267.19
2022-11-28T04:04:15.765Z,101262.94
2022-11-28T04:06:55.549Z,101273.53
2022-11-28T04:09:36.772Z,101281.50
2022-11-28T04:12:11.159Z,101275.50
2022-11-28T04:14:43.058Z,101271.78
2022-11-28T04:17:17.283Z,101274.56
2022-11-28T04:19:50.812Z,101273.09
2022-11-28T04:22:25.533Z,101265.00
2022-11-28T04:24:57.085Z,101269.47
2022-11-28T04:27:30.076Z,101267.78
2022-11-28T04:30:02.106Z,101269.84
2022-11-28T04:32:32.911Z,101272.22
2022-11-28T04:35:06.269Z,101257.19
2022-11-28T04:37:51.509Z,101267.91
2022-11-28T04:40:21.555Z,101287.44
2022-11-28T04:42:53.658Z,101278.53
2022-11-28T04:45:27.880Z,101281.94
2022-11-28T04:47:56.237Z,101257.34
2022-11-28T04:50:26.686Z,101264.69
2022-11-28T04:53:00.656Z,101258.69
2022-11-28T04:55:35.965Z,101266.38
2022-11-28T04:58:11.908Z,101262.50
2022-11-28T05:00:41.606Z,101252.25
2022-11-28T05:03:11.066Z,101259.53
2022-11-28T05:05:47.962Z,101248.09
2022-11-28T05:08:18.508Z,101252.06
2022-11-28T05:10:46.388Z,101243.66
2022-11-28T05:13:14.261Z,101247.22
2022-11-28T05:15:42.092Z,101258.28
2022-11-28T05:18:10.382Z,101271.03
2022-11-28T05:20:39.781Z,101291.25
2022-11-28T05:23:08.090Z,101304.03
2022-11-28T05:25:38.800Z,101313.13
2022-11-28T05:28:06.712Z,101306.72
2022-11-28T05:30:34.580Z,101296.25
2022-11-28T05:33:02.816Z,101302.22
2022-11-28T05:35:30.800Z,101311.09
2022-11-28T05:37:58.712Z,101309.38
2022-11-28T05:40:26.539Z,101308.16
2022-11-28T05:42:55.790Z,101308.97
2022-11-28T05:45:23.657Z,101310.72
2022-11-28T05:47:51.543Z,101308.22
2022-11-28T05:50:19.383Z,101305.03
2022-11-28T05:52:47.299Z,101308.78
2022-11-28T05:55:15.340Z,101315.84
2022-11-28T05:57:43.266Z,101296.56
2022-11-28T06:00:14.443Z,101282.28
2022-11-28T06:02:42.323Z,101279.19
2022-11-28T06:05:34.695Z,101269.53
2022-11-28T06:07:58.397Z,101266.22
2022-11-28T06:10:26.416Z,101260.09
2022-11-28T06:12:54.365Z,101270.75
2022-11-28T06:15:23.677Z,101263.34
2022-11-28T06:17:51.637Z,101274.06
2022-11-28T06:20:19.672Z,101275.97
2022-11-28T06:22:47.748Z,101289.22
2022-11-28T06:25:15.679Z,101281.84
2022-11-28T06:27:43.499Z,101279.00
2022-11-28T06:30:11.707Z,101272.66
2022-11-28T06:32:40.981Z,101269.75
2022-11-28T06:35:09.404Z,101259.09
2022-11-28T06:37:37.429Z,101261.56
2022-11-28T06:40:06.488Z,101265.09
2022-11-28T06:42:36.101Z,101258.16
2022-11-28T06:45:04.521Z,101258.91
2022-11-28T06:47:32.404Z,101254.59
2022-11-28T06:50:01.561Z,101260.13
2022-11-28T06:52:30.171Z,101260.06
2022-11-28T06:54:58.093Z,101259.25
2022-11-28T06:57:25.904Z,101271.03
2022-11-28T06:59:53.785Z,101265.13
2022-11-28T07:02:22.943Z,101267.44
2022-11-28T07:04:50.800Z,101271.13
2022-11-28T07:07:20.084Z,101270.22
2022-11-28T07:09:48.060Z,101263.38
2022-11-28T07:12:15.948Z,101265.13
2022-11-28T07:14:43.925Z,101268.31
2022-11-28T07:17:11.783Z,101281.66
2022-11-28T07:19:39.855Z,101283.41
2022-11-28T07:22:07.784Z,101285.25
2022-11-28T07:24:37.055Z,101281.84
2022-11-28T07:27:05.055Z,101283.97
2022-11-28T07:29:36.471Z,101282.28
2022-11-28T07:32:05.960Z,101282.75
2022-11-28T07:34:34.000Z,101275.59
2022-11-28T07:37:01.871Z,101272.41
2022-11-28T07:39:29.946Z,101278.38
2022-11-28T07:41:59.856Z,101274.81
2022-11-28T07:44:27.804Z,101276.41
2022-11-28T07:46:55.886Z,101275.25
2022-11-28T07:49:23.731Z,101286.38
2022-11-28T07:51:51.583Z,101284.66
2022-11-28T07:54:19.502Z,101289.75
2022-11-28T07:59:36.736Z,101295.34
2022-11-28T08:02:04.769Z,101290.16
2022-11-28T08:04:32.696Z,101294.59
2022-11-28T08:07:01.204Z,101293.72
2022-11-28T08:09:29.626Z,101290.72
2022-11-28T08:11:57.779Z,101290.94
2022-11-28T08:14:27.071Z,101292.56
2022-11-28T08:16:56.329Z,101299.41
2022-11-28T08:19:24.700Z,101299.03
2022-11-28T08:22:07.668Z,101307.75
2022-11-28T08:24:35.554Z,101302.06
2022-11-28T08:27:06.392Z,101304.72
2022-11-28T08:29:34.231Z,101303.59
2022-11-28T08:32:03.455Z,101299.41
2022-11-28T08:34:31.280Z,101303.38
2022-11-28T08:36:59.218Z,101303.50
2022-11-28T08:39:27.259Z,101304.66
2022-11-28T08:41:57.210Z,101300.09
2022-11-28T08:44:25.722Z,101304.66
2022-11-28T08:46:53.898Z,101314.22
2022-11-28T08:49:23.098Z,101311.78
2022-11-28T08:51:51.127Z,101318.34
2022-11-28T08:54:19.130Z,101323.50
2022-11-28T08:56:48.385Z,101323.50
2022-11-28T08:59:16.531Z,101322.81
2022-11-28T09:01:44.454Z,101325.63
2022-11-28T09:04:12.378Z,101325.25
2022-11-28T09:06:42.099Z,101330.28
2022-11-28T09:09:10.327Z,101327.47
2022-11-28T09:11:38.850Z,101326.63
2022-11-28T09:14:07.098Z,101331.91
2022-11-28T09:16:35.016Z,101325.47
2022-11-28T09:19:02.951Z,101337.13
2022-11-28T09:21:30.911Z,101333.50
2022-11-28T09:24:00.188Z,101332.44
2022-11-28T09:26:29.913Z,101319.91
2022-11-28T09:28:57.966Z,101337.34
2022-11-28T09:31:26.836Z,101326.63
2022-11-28T09:33:55.112Z,101317.28
2022-11-28T09:36:25.017Z,101327.81
2022-11-28T09:38:52.846Z,101331.69
2022-11-28T09:41:54.692Z,101328.84
2022-11-28T09:44:25.292Z,101330.34
2022-11-28T09:46:56.639Z,101325.50
2022-11-28T09:49:39.828Z,101327.00
2022-11-28T09:52:22.552Z,101335.00
2022-11-28T09:54:53.848Z,101340.81
2022-11-28T09:57:33.136Z,101341.69
2022-11-28T10:00:01.763Z,101333.72
2022-11-28T10:02:36.343Z,101327.63
2022-11-28T10:05:16.291Z,101328.59
2022-11-28T10:07:57.815Z,101329.38
2022-11-28T10:10:39.854Z,101329.78
2022-11-28T10:13:15.745Z,101320.09
2022-11-28T10:15:51.791Z,101327.22
2022-11-28T10:18:34.651Z,101323.22
2022-11-28T10:21:06.439Z,101320.72
2022-11-28T10:23:41.278Z,101318.81
2022-11-28T10:26:14.457Z,101327.44
2022-11-28T10:28:49.142Z,101324.66
2022-11-28T10:31:32.201Z,101321.44
2022-11-28T10:34:06.809Z,101324.28
2022-11-28T10:36:48.342Z,101318.38
2022-11-28T10:39:16.323Z,101311.56
2022-11-28T10:42:11.580Z,101317.69
2022-11-28T10:44:52.570Z,101313.19
2022-11-28T10:47:31.029Z,101313.78
2022-11-28T10:50:04.570Z,101311.81
2022-11-28T10:52:44.233Z,101308.84
2022-11-28T10:55:28.014Z,101304.97
2022-11-28T10:58:08.263Z,101308.56
2022-11-28T11:00:39.424Z,101304.47
2022-11-28T11:03:12.931Z,101302.94
2022-11-28T11:05:42.597Z,101299.47
2022-11-28T11:08:19.072Z,101306.53
2022-11-28T11:10:50.611Z,101302.75
2022-11-28T11:13:20.449Z,101305.41
2022-11-28T11:15:52.955Z,101313.00
2022-11-28T11:18:27.354Z,101306.53
2022-11-28T11:21:09.660Z,101307.50
2022-11-28T11:23:38.614Z,101310.97
2022-11-28T11:26:10.254Z,101317.00
2022-11-28T11:28:45.030Z,101307.75
2022-11-28T11:31:24.516Z,101309.03
2022-11-28T11:33:54.387Z,101303.91
2022-11-28T11:36:27.089Z,101303.09
2022-11-28T11:39:07.842Z,101299.09
2022-11-28T11:41:35.781Z,101305.41
2022-11-28T11:44:29.734Z,101307.38
2022-11-28T11:47:03.639Z,101300.94
2022-11-28T11:49:34.046Z,101297.09
2022-11-28T11:52:04.628Z,101309.47
2022-11-28T11:54:32.567Z,101296.88
2022-11-28T11:57:30.592Z,101304.63
2022-11-28T11:59:54.514Z,101303.44
2022-11-28T12:02:29.066Z,101303.69
2022-11-28T12:05:03.487Z,101302.19
2022-11-28T12:07:38.114Z,101308.13
2022-11-28T12:10:12.525Z,101302.94
2022-11-28T12:12:42.022Z,101309.34
2022-11-28T12:15:18.950Z,101294.16
2022-11-28T12:17:59.329Z,101311.25
2022-11-28T12:20:49.540Z,101297.88
2022-11-28T12:23:33.094Z,101296.69
2022-11-28T12:26:07.792Z,101293.44
2022-11-28T12:28:50.525Z,101287.69
2022-11-28T12:31:29.635Z,101295.19
2022-11-28T12:34:06.768Z,101289.97
2022-11-28T12:36:40.663Z,101286.22
2022-11-28T12:39:19.415Z,101283.34
2022-11-28T12:42:13.911Z,101292.25
2022-11-28T12:44:55.008Z,101288.78
2022-11-28T12:47:35.077Z,101285.63
2022-11-28T12:50:19.703Z,101284.38
2022-11-28T12:52:54.285Z,101284.75
2022-11-28T12:55:29.823Z,101285.41
2022-11-28T12:58:06.838Z,101295.03
2022-11-28T13:00:39.793Z,101288.13
2022-11-28T13:03:20.213Z,101285.53
2022-11-28T13:06:03.557Z,101289.69
2022-11-28T13:08:48.170Z,101287.91
2022-11-28T13:11:33.717Z,101298.78
2022-11-28T13:14:09.772Z,101294.97
2022-11-28T13:16:46.938Z,101287.03
2022-11-28T13:19:29.873Z,101291.53
2022-11-28T13:22:08.817Z,101294.53
2022-11-28T13:24:43.626Z,101285.75
2022-11-28T13:27:22.070Z,101287.47
2022-11-28T13:29:59.990Z,101292.84
2022-11-28T13:32:37.181Z,101290.78
2022-11-28T13:35:06.509Z,101290.06
2022-11-28T13:40:41.269Z,101275.97
2022-11-28T13:43:19.258Z,101276.78
2022-11-28T13:45:48.510Z,101285.41
2022-11-28T13:49:14.220Z,101287.38
2022-11-28T13:51:43.120Z,101270.16
2022-11-28T13:54:46.518Z,101271.25
2022-11-28T13:57:31.639Z,101285.19
2022-11-28T14:00:27.885Z,101288.53
2022-11-28T14:03:00.112Z,101290.53
2022-11-28T14:05:34.873Z,101289.28
2022-11-28T14:08:04.839Z,101289.16
2022-11-28T14:10:49.057Z,101293.03
2022-11-28T14:13:47.963Z,101296.56
2022-11-28T14:16:28.881Z,101295.69
2022-11-28T14:19:06.890Z,101295.00
2022-11-28T14:21:50.242Z,101291.25
2022-11-28T14:24:29.365Z,101300.69
2022-11-28T14:27:02.008Z,101296.63
2022-11-28T14:29:35.419Z,101298.00
2022-11-28T14:34:52.226Z,101303.41
2022-11-28T14:37:53.170Z,101309.56
2022-11-28T14:41:07.098Z,101312.44
2022-11-28T14:43:41.320Z,101317.00
2022-11-28T14:46:26.041Z,101300.28
2022-11-28T14:49:22.397Z,101305.19
2022-11-28T14:52:37.646Z,101303.16
2022-11-28T14:55:16.422Z,101299.13
2022-11-28T14:57:57.899Z,101297.88
2022-11-28T15:00:29.831Z,101300.78
2022-11-28T15:03:28.412Z,101307.72
2022-11-28T15:06:00.927Z,101307.28
2022-11-28T15:08:42.035Z,101306.38
2022-11-28T15:11:21.399Z,101302.81
2022-11-28T15:14:06.472Z,101312.41
2022-11-28T15:16:40.047Z,101315.94
2022-11-28T15:19:17.272Z,101325.50
2022-11-28T15:21:47.177Z,101329.31
2022-11-28T15:24:29.947Z,101336.03
2022-11-28T15:26:59.671Z,101320.09
2022-11-28T15:29:29.588Z,101326.38
2022-11-28T15:32:00.112Z,101326.25
2022-11-28T15:34:30.760Z,101320.69
2022-11-28T15:37:00.822Z,101318.09
2022-11-28T15:39:34.988Z,101322.47
2022-11-28T15:42:05.869Z,101317.97
2022-11-28T15:44:34.211Z,101318.72
2022-11-28T15:47:03.681Z,101316.97
2022-11-28T15:49:33.476Z,101316.00
2022-11-28T15:52:03.810Z,101320.03
2022-11-28T15:54:39.365Z,101321.03
2022-11-28T15:57:07.417Z,101324.28
2022-11-28T15:59:36.378Z,101326.47
2022-11-28T16:02:16.569Z,101334.63
2022-11-28T16:04:46.072Z,101334.53
2022-11-28T16:07:16.165Z,101334.31
2022-11-28T16:09:55.136Z,101331.38
2022-11-28T16:12:23.554Z,101341.13
2022-11-28T16:14:53.409Z,101345.78
2022-11-28T16:17:27.190Z,101339.56
2022-11-28T16:19:56.636Z,101349.81
2022-11-28T16:22:30.484Z,101343.91
2022-11-28T16:25:00.163Z,101342.53
2022-11-28T16:27:34.349Z,101340.19
2022-11-28T16:30:03.190Z,101347.25
2022-11-28T16:32:39.399Z,101350.97
2022-11-28T16:35:12.576Z,101346.69
2022-11-28T16:37:41.003Z,101351.72
2022-11-28T16:40:17.093Z,101352.09
2022-11-28T16:42:53.877Z,101347.03
2022-11-28T16:45:25.531Z,101344.94
2022-11-28T16:48:02.191Z,101351.81
2022-11-28T16:50:30.329Z,101356.38
2022-11-28T16:52:59.002Z,101368.31
2022-11-28T16:55:44.390Z,101365.78
2022-11-28T16:58:21.612Z,101375.50
2022-11-28T17:01:01.900Z,101363.69
2022-11-28T17:03:51.368Z,101366.22
2022-11-28T17:06:28.886Z,101378.16
2022-11-28T17:08:58.550Z,101368.47
2022-11-28T17:11:32.246Z,101369.41
2022-11-28T17:14:02.702Z,101363.22
2022-11-28T17:16:33.587Z,101374.56
2022-11-28T17:19:03.015Z,101374.59
2022-11-28T17:21:35.446Z,101374.56
2022-11-28T17:24:03.472Z,101378.72
2022-11-28T17:26:33.124Z,101382.38
2022-11-28T17:29:01.456Z,101376.59
2022-11-28T17:31:29.367Z,101372.53
2022-11-28T17:33:57.420Z,101375.50
2022-11-28T17:36:26.695Z,101373.28
2022-11-28T17:38:54.599Z,101384.09
2022-11-28T17:41:23.295Z,101381.84
2022-11-28T17:43:51.174Z,101383.41
2022-11-28T17:46:21.488Z,101383.06
2022-11-28T17:48:49.497Z,101384.63
2022-11-28T17:51:17.585Z,101379.19
2022-11-28T17:53:49.010Z,101390.63
2022-11-28T17:56:17.028Z,101388.91
2022-11-28T17:58:45.031Z,101392.50
2022-11-28T18:01:13.955Z,101389.94
2022-11-28T18:03:42.085Z,101386.53
2022-11-28T18:06:16.474Z,101381.97
2022-11-28T18:08:44.546Z,101388.22
2022-11-28T18:11:15.148Z,101389.84
2022-11-28T18:13:44.756Z,101382.38
2022-11-28T18:16:14.016Z,101393.84
2022-11-28T18:18:42.079Z,101398.75
2022-11-28T18:21:11.150Z,101395.41
2022-11-28T18:23:40.079Z,101391.63
2022-11-28T18:26:09.676Z,101384.59
2022-11-28T18:28:39.458Z,101393.41
2022-11-28T18:31:11.903Z,101388.88
2022-11-28T18:33:40.358Z,101398.41
2022-11-28T18:36:12.502Z,101386.00
2022-11-28T18:38:40.561Z,101384.22
2022-11-28T18:41:10.425Z,101385.44
2022-11-28T18:43:39.876Z,101393.25
2022-11-28T18:46:09.293Z,101393.47
2022-11-28T18:48:38.433Z,101397.25
2022-11-28T18:51:12.688Z,101403.22
2022-11-28T18:53:40.722Z,101402.44
2022-11-28T18:56:09.682Z,101401.59
2022-11-28T18:58:40.972Z,101397.47
2022-11-28T19:01:13.157Z,101399.16
2022-11-28T19:03:42.562Z,101407.94
2022-11-28T19:06:12.935Z,101404.44
2022-11-28T19:08:41.387Z,101412.41
2022-11-28T19:11:11.304Z,101407.91
2022-11-28T19:13:41.241Z,101409.78
2022-11-28T19:16:10.916Z,101409.03
2022-11-28T19:18:39.802Z,101404.28
2022-11-28T19:21:08.867Z,101405.22
2022-11-28T19:23:37.249Z,101412.63
2022-11-28T19:26:06.192Z,101410.94
2022-11-28T19:28:35.514Z,101406.28
2022-11-28T19:31:08.047Z,101409.75
2022-11-28T19:33:35.987Z,101416.06
2022-11-28T19:36:04.235Z,101416.28
2022-11-28T19:38:32.319Z,101413.81
2022-11-28T19:41:00.250Z,101421.63
2022-11-28T19:43:28.110Z,101425.09
2022-11-28T19:45:56.735Z,101418.88
2022-11-28T19:48:26.070Z,101422.28
2022-11-28T19:50:54.479Z,101430.97
2022-11-28T19:53:23.022Z,101426.22
2022-11-28T19:55:50.849Z,101425.91
2022-11-28T19:58:19.573Z,101418.13
2022-11-28T20:00:47.606Z,101419.63
2022-11-28T20:03:18.174Z,101424.31
2022-11-28T20:05:47.502Z,101427.31
2022-11-28T20:08:15.445Z,101427.03
2022-11-28T20:10:43.543Z,101434.50
2022-11-28T20:13:11.613Z,101427.31
2022-11-28T20:15:39.540Z,101429.31
2022-11-28T20:18:07.447Z,101434.44
2022-11-28T20:20:35.957Z,101446.00
2022-11-28T20:23:05.735Z,101451.00
2022-11-28T20:25:34.074Z,101439.41
2022-11-28T20:28:02.159Z,101441.78
2022-11-28T20:30:32.963Z,101448.63
2022-11-28T20:33:00.805Z,101451.91
2022-11-28T20:35:29.088Z,101449.88
2022-11-28T20:37:57.095Z,101444.56
2022-11-28T20:40:26.408Z,101452.47
2022-11-28T20:42:54.489Z,101447.44
2022-11-28T20:45:22.279Z,101449.91
2022-11-28T20:47:50.247Z,101448.78
2022-11-28T20:50:18.347Z,101444.31
2022-11-28T20:52:46.324Z,101448.34
2022-11-28T20:55:14.144Z,101439.41
2022-11-28T20:57:43.344Z,101454.47
2022-11-28T21:00:12.395Z,101449.31
2022-11-28T21:02:40.525Z,101449.38
2022-11-28T21:05:09.068Z,101449.50
2022-11-28T21:07:37.003Z,101454.81
2022-11-28T21:10:05.394Z,101450.34
2022-11-28T21:12:34.010Z,101456.41
2022-11-28T21:15:03.383Z,101451.00
2022-11-28T21:17:31.234Z,101446.88
2022-11-28T21:19:59.065Z,101448.44
2022-11-28T21:22:27.191Z,101452.84
2022-11-28T21:24:54.970Z,101451.34
2022-11-28T21:27:23.001Z,101453.88
2022-11-28T21:29:52.056Z,101452.72
2022-11-28T21:32:21.320Z,101453.22
2022-11-28T21:34:49.187Z,101459.53
2022-11-28T21:37:16.958Z,101453.47
2022-11-28T21:39:44.925Z,101457.72
2022-11-28T21:42:17.455Z,101462.81
2022-11-28T21:44:48.146Z,101458.44
2022-11-28T21:47:16.084Z,101456.59
2022-11-28T21:49:45.426Z,101463.41
2022-11-28T21:52:13.562Z,101460.75
2022-11-28T21:54:41.512Z,101459.06
2022-11-28T21:57:09.292Z,101461.09
2022-11-28T21:59:37.113Z,101461.91
2022-11-28T22:02:11.288Z,101465.34
2022-11-28T22:04:39.757Z,101464.91
2022-11-28T22:07:09.547Z,101461.16
2022-11-28T22:09:37.452Z,101462.19
2022-11-28T22:12:05.827Z,101458.13
2022-11-28T22:14:36.813Z,101463.31
2022-11-28T22:17:04.997Z,101462.66
2022-11-28T22:19:32.932Z,101473.28
2022-11-28T22:22:00.955Z,101468.84
2022-11-28T22:24:30.354Z,101472.19
2022-11-28T22:26:58.503Z,101463.53
2022-11-28T22:29:26.764Z,101474.16
2022-11-28T22:31:54.732Z,101474.25
2022-11-28T22:34:23.087Z,101471.56
2022-11-28T22:36:51.229Z,101471.94
2022-11-28T22:39:19.065Z,101468.66
2022-11-28T22:41:48.394Z,101469.41
2022-11-28T22:44:16.349Z,101472.59
2022-11-28T22:46:44.222Z,101477.91
2022-11-28T22:49:12.166Z,101481.34
2022-11-28T22:51:41.329Z,101470.88
2022-11-28T22:54:12.574Z,101481.47
2022-11-28T22:56:41.112Z,101483.88
2022-11-28T22:59:14.466Z,101479.09
2022-11-28T23:01:43.664Z,101482.69
2022-11-28T23:04:11.747Z,101481.81
2022-11-28T23:06:39.861Z,101480.06
2022-11-28T23:09:09.407Z,101490.25
2022-11-28T23:11:40.242Z,101487.41
2022-11-28T23:14:08.180Z,101486.25
2022-11-28T23:16:39.192Z,101486.44
2022-11-28T23:19:09.134Z,101486.66
2022-11-28T23:21:39.057Z,101485.09
2022-11-28T23:24:08.153Z,101490.13
2022-11-28T23:26:38.175Z,101481.53
2022-11-28T23:29:06.920Z,101491.59
2022-11-28T23:31:39.021Z,101489.84
2022-11-28T23:34:08.077Z,101495.25
2022-11-28T23:36:42.451Z,101503.81
2022-11-28T23:39:13.835Z,101501.53
2022-11-28T23:41:42.623Z,101498.72
2022-11-28T23:44:11.664Z,101506.25
2022-11-28T23:46:41.860Z,101502.38
2022-11-28T23:49:10.526Z,101507.88
2022-11-28T23:51:38.653Z,101503.25
2022-11-28T23:54:07.315Z,101502.31
2022-11-28T23:56:36.978Z,101507.06
2022-11-28T23:59:06.869Z,101509.91
